Time;durP1;ratioP1;P1;durP2;ratioP2;P2;SDS_P1;SDS_P2;PMS_P1;PMS_P2;Temp;Humidity;BMP_temperature;BMP_pressure;BME280_temperature;BME280_humidity;BME280_pressure;Samples;Min_cycle;Max_cycle;Signal;HPM_P1;HPM_P2
2021/05/15 00:01:45;;;;;;;4.33;3.93;;;9.10;99.90;;;;;;4861319;29;20662;-81
2021/05/15 00:04:11;;;;;;;4.80;4.23;;;9.00;99.90;;;;;;4861145;29;20192;-81
2021/05/15 00:06:36;;;;;;;4.60;4.03;;;9.10;99.90;;;;;;4875387;29;20235;-81
2021/05/15 00:09:04;;;;;;;4.47;4.07;;;9.10;99.90;;;;;;4875394;29;20669;-81
2021/05/15 00:11:29;;;;;;;6.10;3.83;;;9.10;99.90;;;;;;4861039;29;20227;-81
2021/05/15 00:13:55;;;;;;;3.70;3.40;;;9.10;99.90;;;;;;4861053;29;20204;-81
2021/05/15 00:16:21;;;;;;;4.07;3.67;;;9.20;99.90;;;;;;4860583;29;20711;-81
2021/05/15 00:18:46;;;;;;;6.00;3.73;;;9.20;99.90;;;;;;4861113;29;20180;-81
2021/05/15 00:21:12;;;;;;;4.30;3.80;;;9.20;99.90;;;;;;4861074;29;20417;-82
2021/05/15 00:23:38;;;;;;;4.60;3.50;;;9.20;99.90;;;;;;4860931;29;20914;-82
2021/05/15 00:26:04;;;;;;;4.60;3.65;;;9.20;99.90;;;;;;4844429;29;20445;-82
2021/05/15 00:28:30;;;;;;;5.60;3.70;;;9.30;99.90;;;;;;4861000;29;20271;-82
2021/05/15 00:30:56;;;;;;;4.83;3.70;;;9.20;99.90;;;;;;4859843;29;20184;-82
2021/05/15 00:33:22;;;;;;;5.30;3.27;;;9.10;99.90;;;;;;4859795;29;20485;-82
2021/05/15 00:35:48;;;;;;;7.13;4.10;;;9.10;99.90;;;;;;4860422;29;20464;-82
2021/05/15 00:38:14;;;;;;;4.90;3.87;;;9.10;99.90;;;;;;4861273;29;20589;-82
2021/05/15 00:40:40;;;;;;;4.90;3.47;;;9.10;99.90;;;;;;4860985;29;20184;-82
2021/05/15 00:43:07;;;;;;;4.27;3.87;;;9.10;99.90;;;;;;4862975;29;20180;-82
2021/05/15 00:45:33;;;;;;;4.72;4.25;;;9.10;99.90;;;;;;4864349;29;20440;-82
2021/05/15 00:47:59;;;;;;;4.33;3.30;;;9.20;99.90;;;;;;4863408;29;20673;-82
2021/05/15 00:50:24;;;;;;;5.50;3.40;;;9.20;99.90;;;;;;4864589;29;20210;-82
2021/05/15 00:52:50;;;;;;;5.20;4.10;;;9.20;99.90;;;;;;4864591;29;20184;-82
2021/05/15 00:55:16;;;;;;;4.70;4.20;;;9.20;99.90;;;;;;4864151;29;20239;-82
2021/05/15 00:57:42;;;;;;;4.00;3.47;;;9.20;99.90;;;;;;4864351;29;20219;-82
2021/05/15 01:00:10;;;;;;;4.32;3.17;;;9.10;99.90;;;;;;4863167;29;20413;-82
2021/05/15 01:02:37;;;;;;;4.88;3.20;;;9.10;99.90;;;;;;4878682;29;20192;-82
2021/05/15 01:05:04;;;;;;;2.88;2.67;;;9.10;99.90;;;;;;4864020;29;20343;-81
2021/05/15 01:07:30;;;;;;;3.10;2.80;;;9.10;99.90;;;;;;4863054;29;20629;-82
2021/05/15 01:09:55;;;;;;;3.47;3.17;;;9.10;99.90;;;;;;4864070;29;20204;-81
2021/05/15 01:12:21;;;;;;;6.77;3.00;;;9.00;99.90;;;;;;4864072;29;20267;-80
2021/05/15 01:14:48;;;;;;;4.30;3.00;;;9.00;99.90;;;;;;4877859;29;20224;-81
2021/05/15 01:17:13;;;;;;;2.53;2.33;;;9.10;99.90;;;;;;4847521;29;20187;-80
2021/05/15 01:19:39;;;;;;;9.57;2.83;;;9.10;99.90;;;;;;4878322;29;20401;-80
2021/05/15 01:22:09;;;;;;;4.27;2.73;;;9.10;99.90;;;;;;4863956;29;20185;-81
2021/05/15 01:24:35;;;;;;;3.22;2.92;;;9.10;99.90;;;;;;4863641;29;20169;-82
2021/05/15 01:27:09;;;;;;;3.10;2.80;;;9.10;99.90;;;;;;4863992;29;20180;-81
2021/05/15 01:29:35;;;;;;;3.00;2.40;;;9.10;99.90;;;;;;4863913;29;20543;-82
2021/05/15 01:32:01;;;;;;;4.97;3.05;;;9.10;99.90;;;;;;4863815;29;20185;-81
2021/05/15 01:34:27;;;;;;;2.92;2.70;;;9.00;99.90;;;;;;4863377;29;20184;-82
2021/05/15 01:36:53;;;;;;;5.17;2.60;;;9.00;99.90;;;;;;4863799;29;20204;-80
2021/05/15 01:39:41;;;;;;;3.80;2.67;;;9.00;99.90;;;;;;4847396;29;20480;-81
2021/05/15 01:42:07;;;;;;;3.20;2.65;;;9.10;99.90;;;;;;4849902;29;20225;-82
2021/05/15 01:44:33;;;;;;;2.90;2.70;;;9.00;99.90;;;;;;4863332;29;20181;-81
2021/05/15 01:46:58;;;;;;;4.90;2.40;;;8.90;99.90;;;;;;4863650;29;20259;-81
2021/05/15 01:49:24;;;;;;;3.43;2.30;;;8.80;99.90;;;;;;4863511;29;20488;-81
2021/05/15 01:51:50;;;;;;;5.50;3.13;;;8.70;99.90;;;;;;4862384;29;20252;-79
2021/05/15 01:54:15;;;;;;;2.73;2.40;;;8.60;99.90;;;;;;4861452;29;20425;-80
2021/05/15 01:56:41;;;;;;;4.63;2.80;;;8.70;99.90;;;;;;4863279;29;20231;-81
2021/05/15 01:59:08;;;;;;;3.30;2.50;;;8.70;99.90;;;;;;4863324;29;20188;-81
2021/05/15 02:01:35;;;;;;;2.97;2.67;;;8.70;99.90;;;;;;4877498;29;20191;-82
2021/05/15 02:04:02;;;;;;;6.50;2.50;;;8.70;99.90;;;;;;4862114;29;20219;-81
2021/05/15 02:06:28;;;;;;;5.30;2.67;;;8.80;99.90;;;;;;4861586;29;20586;-81
2021/05/15 02:08:53;;;;;;;2.70;2.50;;;8.80;99.90;;;;;;4863222;29;20207;-81
2021/05/15 02:11:19;;;;;;;2.60;2.40;;;8.80;99.90;;;;;;4877381;29;20188;-81
2021/05/15 02:13:49;;;;;;;3.00;2.47;;;8.90;99.90;;;;;;4863177;29;20324;-81
2021/05/15 02:16:17;;;;;;;2.75;2.53;;;8.90;99.90;;;;;;4862493;29;20231;-81
2021/05/15 02:18:42;;;;;;;3.38;2.90;;;9.00;99.90;;;;;;4862932;29;20179;-81
2021/05/15 02:21:08;;;;;;;3.10;2.70;;;9.00;99.90;;;;;;4877230;29;20192;-81
2021/05/15 02:23:34;;;;;;;4.00;3.10;;;9.00;99.90;;;;;;4877087;29;20566;-80
2021/05/15 02:26:01;;;;;;;3.58;2.28;;;8.90;99.90;;;;;;4862594;29;20200;-80
2021/05/15 02:28:26;;;;;;;2.58;2.38;;;8.90;99.90;;;;;;4862926;29;20187;-80
2021/05/15 02:30:52;;;;;;;5.03;2.57;;;8.90;99.90;;;;;;4862890;29;20192;-81
2021/05/15 02:33:18;;;;;;;2.80;2.53;;;8.90;99.90;;;;;;4862965;29;20264;-81
2021/05/15 02:35:44;;;;;;;3.20;2.90;;;9.00;99.90;;;;;;4862272;29;20216;-80
2021/05/15 02:38:12;;;;;;;2.60;2.40;;;9.00;99.90;;;;;;4876897;29;20217;-80
2021/05/15 02:40:39;;;;;;;3.10;2.80;;;9.00;99.90;;;;;;4862591;29;20175;-80
2021/05/15 02:43:05;;;;;;;5.10;2.40;;;9.00;99.90;;;;;;4861483;29;20224;-80
2021/05/15 02:45:31;;;;;;;2.93;2.33;;;9.00;99.90;;;;;;4862185;29;20235;-80
2021/05/15 02:47:57;;;;;;;3.15;2.40;;;8.90;99.90;;;;;;4861235;29;20701;-80
2021/05/15 02:50:24;;;;;;;2.63;2.42;;;8.90;99.90;;;;;;4862676;29;20311;-80
2021/05/15 02:52:50;;;;;;;2.63;2.42;;;8.80;99.90;;;;;;4862521;29;20180;-81
2021/05/15 02:55:19;;;;;;;2.90;2.70;;;8.80;99.90;;;;;;4860885;29;20346;-80
2021/05/15 02:57:45;;;;;;;4.68;2.28;;;8.80;99.90;;;;;;4861150;29;20973;-80
2021/05/15 03:00:14;;;;;;;2.60;2.40;;;8.80;99.90;;;;;;4862263;29;20181;-81
2021/05/15 03:02:40;;;;;;;3.45;2.20;;;8.80;99.90;;;;;;4862184;29;20188;-81
2021/05/15 03:05:09;;;;;;;4.97;2.30;;;8.90;99.90;;;;;;4859729;29;20215;-81
2021/05/15 03:07:34;;;;;;;3.35;2.75;;;8.90;99.90;;;;;;4862236;29;20425;-80
2021/05/15 03:10:00;;;;;;;5.10;2.40;;;9.00;99.90;;;;;;4862103;29;20188;-81
2021/05/15 03:12:26;;;;;;;2.23;2.03;;;9.00;99.90;;;;;;4862173;29;20184;-80
2021/05/15 03:14:51;;;;;;;2.13;1.90;;;9.00;99.90;;;;;;4861449;29;20310;-81
2021/05/15 03:17:17;;;;;;;2.53;2.27;;;9.00;99.90;;;;;;4876145;29;20620;-81
2021/05/15 03:19:42;;;;;;;2.20;2.00;;;9.00;99.90;;;;;;4860879;29;20196;-81
2021/05/15 03:22:08;;;;;;;2.17;1.97;;;9.00;99.90;;;;;;4861840;29;20185;-80
2021/05/15 03:24:34;;;;;;;3.73;2.50;;;9.10;99.90;;;;;;4861592;29;20209;-81
2021/05/15 03:27:00;;;;;;;2.73;2.47;;;9.10;99.90;;;;;;4861730;29;20880;-80
2021/05/15 03:29:26;;;;;;;8.00;2.67;;;9.10;99.90;;;;;;4860779;29;20186;-80
2021/05/15 03:31:52;;;;;;;2.60;2.40;;;9.20;99.90;;;;;;4861762;29;20176;-81
2021/05/15 03:34:18;;;;;;;3.90;2.17;;;9.20;99.90;;;;;;4861433;29;20666;-81
2021/05/15 03:36:44;;;;;;;4.30;2.67;;;9.10;99.90;;;;;;4876162;29;20256;-80
2021/05/15 03:39:09;;;;;;;2.40;2.20;;;9.20;99.90;;;;;;4860628;29;20644;-81
2021/05/15 03:41:35;;;;;;;2.83;2.50;;;9.20;99.90;;;;;;4861598;29;20703;-80
2021/05/15 03:44:00;;;;;;;3.23;2.93;;;9.20;99.90;;;;;;4861762;29;20215;-79
2021/05/15 03:46:26;;;;;;;2.63;2.43;;;9.30;99.90;;;;;;4861367;29;20248;-80
2021/05/15 03:48:52;;;;;;;4.20;2.73;;;9.20;99.90;;;;;;4861590;29;20191;-81
2021/05/15 03:51:17;;;;;;;4.10;2.83;;;9.20;99.90;;;;;;4844709;29;20200;-80
2021/05/15 03:53:43;;;;;;;2.17;2.00;;;9.20;99.90;;;;;;4861409;29;20275;-80
2021/05/15 03:56:09;;;;;;;4.53;2.73;;;9.20;99.90;;;;;;4860963;29;20321;-80
2021/05/15 03:58:34;;;;;;;8.90;3.03;;;9.30;99.90;;;;;;4861320;29;20236;-79
2021/05/15 04:01:00;;;;;;;3.10;2.63;;;9.30;99.90;;;;;;4861265;29;20655;-80
2021/05/15 04:03:25;;;;;;;4.50;2.90;;;9.30;99.90;;;;;;4861152;29;20289;-80
2021/05/15 04:05:51;;;;;;;3.20;2.73;;;9.30;99.90;;;;;;4860876;29;20216;-80
2021/05/15 04:08:17;;;;;;;3.23;2.90;;;9.30;99.90;;;;;;4875634;29;20296;-80
2021/05/15 04:10:43;;;;;;;3.33;2.80;;;9.30;99.90;;;;;;4861230;29;20192;-80
2021/05/15 04:13:30;;;;;;;2.97;2.63;;;9.30;99.90;;;;;;4859983;29;20188;-80
2021/05/15 04:15:59;;;;;;;4.30;2.67;;;9.20;99.90;;;;;;4874554;29;20220;-79
2021/05/15 04:18:28;;;;;;;3.88;2.70;;;9.30;99.90;;;;;;4860964;29;20204;-78
2021/05/15 04:20:55;;;;;;;4.13;2.97;;;9.30;99.90;;;;;;4859908;29;20179;-80
2021/05/15 04:23:21;;;;;;;2.90;2.70;;;9.30;99.90;;;;;;4874942;29;20188;-80
2021/05/15 04:25:48;;;;;;;3.00;2.45;;;9.30;99.90;;;;;;4860511;29;20562;-80
2021/05/15 04:28:14;;;;;;;3.15;2.60;;;9.30;99.90;;;;;;4860951;29;20184;-80
2021/05/15 04:30:40;;;;;;;2.55;2.35;;;9.40;99.90;;;;;;4860853;29;20272;-79
2021/05/15 04:33:06;;;;;;;3.20;2.93;;;9.40;99.90;;;;;;4860957;29;20271;-79
2021/05/15 04:35:32;;;;;;;2.73;2.23;;;9.50;99.90;;;;;;4859150;29;20264;-80
2021/05/15 04:38:05;;;;;;;3.45;2.63;;;9.50;99.90;;;;;;4860731;29;20176;-79
2021/05/15 04:40:32;;;;;;;3.33;2.85;;;9.50;99.90;;;;;;4860948;29;20183;-80
2021/05/15 04:42:58;;;;;;;3.75;2.50;;;9.50;99.90;;;;;;4860912;29;20228;-80
2021/05/15 04:45:26;;;;;;;3.53;2.83;;;9.50;99.90;;;;;;4860432;29;20294;-80
2021/05/15 04:47:52;;;;;;;3.38;2.65;;;9.50;99.90;;;;;;4860776;29;20181;-80
2021/05/15 04:50:18;;;;;;;3.30;2.77;;;9.60;99.90;;;;;;4859641;29;20676;-78
2021/05/15 04:52:43;;;;;;;2.93;2.63;;;9.70;99.90;;;;;;4860702;29;20215;-80
2021/05/15 04:55:09;;;;;;;4.00;3.17;;;9.70;99.90;;;;;;4860428;29;20600;-79
2021/05/15 04:57:35;;;;;;;3.10;2.67;;;9.70;99.90;;;;;;4860633;29;20277;-80
2021/05/15 05:00:00;;;;;;;3.20;2.60;;;9.70;99.90;;;;;;4860583;29;20432;-80
2021/05/15 05:02:26;;;;;;;2.70;2.50;;;9.80;99.90;;;;;;4859598;29;20192;-80
2021/05/15 05:04:51;;;;;;;2.40;2.20;;;9.80;99.90;;;;;;4860488;29;20615;-80
2021/05/15 05:07:17;;;;;;;3.03;2.73;;;9.90;99.90;;;;;;4860858;29;20232;-81
2021/05/15 05:09:43;;;;;;;3.03;2.20;;;9.90;99.90;;;;;;4859478;29;20191;-81
2021/05/15 05:12:08;;;;;;;5.93;2.70;;;9.90;99.90;;;;;;4874803;29;20192;-80
2021/05/15 05:14:37;;;;;;;2.93;2.73;;;9.90;99.90;;;;;;4860091;29;20185;-80
2021/05/15 05:17:03;;;;;;;2.92;2.35;;;10.00;99.90;;;;;;4874726;29;20173;-81
2021/05/15 05:19:29;;;;;;;2.90;2.33;;;10.00;99.90;;;;;;4860438;29;20547;-80
2021/05/15 05:21:55;;;;;;;10.20;3.50;;;10.10;99.90;;;;;;4860398;29;20469;-80
2021/05/15 05:24:21;;;;;;;4.25;2.83;;;10.20;99.90;;;;;;4874195;29;20188;-80
2021/05/15 05:26:48;;;;;;;2.72;2.53;;;10.20;99.90;;;;;;4860438;29;20180;-80
2021/05/15 05:29:14;;;;;;;3.20;2.90;;;10.30;99.90;;;;;;4862333;29;20286;-79
2021/05/15 05:31:43;;;;;;;2.73;2.53;;;10.40;99.90;;;;;;4878108;29;20722;-80
2021/05/15 05:34:09;;;;;;;3.10;2.90;;;10.40;99.90;;;;;;4863367;29;20570;-81
2021/05/15 05:36:36;;;;;;;2.70;2.50;;;10.40;99.90;;;;;;4863648;29;20777;-80
2021/05/15 05:39:08;;;;;;;3.40;3.10;;;10.40;99.90;;;;;;4863915;29;20176;-80
2021/05/15 05:41:33;;;;;;;2.78;2.40;;;10.50;99.90;;;;;;4863679;29;20258;-80
2021/05/15 05:43:59;;;;;;;3.37;3.07;;;10.50;99.90;;;;;;4863665;29;20276;-81
2021/05/15 05:46:25;;;;;;;4.73;2.97;;;10.60;99.90;;;;;;4863289;29;20219;-81
2021/05/15 05:48:50;;;;;;;3.07;2.77;;;10.60;99.90;;;;;;4863802;29;20271;-80
2021/05/15 05:51:17;;;;;;;3.90;3.10;;;10.60;99.90;;;;;;4863620;29;20207;-81
2021/05/15 05:53:42;;;;;;;3.30;3.00;;;10.60;99.90;;;;;;4877852;29;20243;-81
2021/05/15 05:56:08;;;;;;;3.03;2.73;;;10.70;99.90;;;;;;4863130;29;20212;-81
2021/05/15 05:58:33;;;;;;;3.10;2.90;;;10.80;99.90;;;;;;4863457;29;20184;-80
2021/05/15 06:00:59;;;;;;;3.50;3.20;;;10.90;99.90;;;;;;4862338;29;20180;-81
2021/05/15 06:03:25;;;;;;;3.80;3.50;;;11.00;99.90;;;;;;4863439;29;20242;-80
2021/05/15 06:05:51;;;;;;;3.30;3.00;;;11.10;99.90;;;;;;4862853;29;20448;-81
2021/05/15 06:08:17;;;;;;;3.23;2.97;;;11.20;99.90;;;;;;4863288;29;20184;-81
2021/05/15 06:10:43;;;;;;;3.70;3.22;;;11.30;99.90;;;;;;4863165;29;20200;-81
2021/05/15 06:13:09;;;;;;;3.77;3.00;;;11.40;99.90;;;;;;4846757;29;20192;-81
2021/05/15 06:15:36;;;;;;;3.87;3.47;;;11.40;99.90;;;;;;4846454;29;20224;-79
2021/05/15 06:18:03;;;;;;;3.27;2.97;;;11.40;99.90;;;;;;4862002;29;20417;-81
2021/05/15 06:20:29;;;;;;;3.00;2.80;;;11.50;99.90;;;;;;4861841;29;20519;-80
2021/05/15 06:22:55;;;;;;;6.03;3.20;;;11.60;99.90;;;;;;4877268;29;20466;-80
2021/05/15 06:25:21;;;;;;;6.13;3.20;;;11.80;99.90;;;;;;4862571;29;20484;-80
2021/05/15 06:27:46;;;;;;;3.50;3.20;;;11.90;99.90;;;;;;4862887;29;20485;-80
2021/05/15 06:30:13;;;;;;;3.73;3.43;;;12.00;99.90;;;;;;4862766;29;20431;-80
2021/05/15 06:32:38;;;;;;;3.07;2.83;;;12.00;99.90;;;;;;4862694;29;20216;-79
2021/05/15 06:35:05;;;;;;;3.73;3.30;;;12.00;99.90;;;;;;4862466;29;20480;-80
2021/05/15 06:37:30;;;;;;;5.87;3.83;;;12.00;99.90;;;;;;4863009;29;20188;-80
2021/05/15 06:39:56;;;;;;;4.03;3.63;;;11.90;99.90;;;;;;4862899;29;20422;-80
2021/05/15 06:42:22;;;;;;;4.70;3.60;;;11.70;99.90;;;;;;4862787;29;20188;-80
2021/05/15 06:44:48;;;;;;;3.70;3.40;;;11.80;99.90;;;;;;4862283;29;20341;-80
2021/05/15 06:47:15;;;;;;;5.97;5.47;;;11.80;99.90;;;;;;4862586;29;20654;-80
2021/05/15 06:49:40;;;;;;;3.50;3.20;;;11.90;99.90;;;;;;4862478;29;20449;-79
2021/05/15 06:52:06;;;;;;;4.53;3.40;;;11.90;99.90;;;;;;4861349;29;20471;-80
2021/05/15 06:54:32;;;;;;;4.67;3.47;;;11.90;99.90;;;;;;4861800;29;20184;-80
2021/05/15 06:56:57;;;;;;;7.30;3.10;;;11.80;99.90;;;;;;4862236;29;20185;-80
2021/05/15 06:59:23;;;;;;;4.30;3.90;;;11.80;99.90;;;;;;4876605;29;20188;-80
2021/05/15 07:01:49;;;;;;;3.47;3.17;;;12.00;99.90;;;;;;4862702;29;20287;-80
2021/05/15 07:04:14;;;;;;;3.10;2.90;;;12.20;99.90;;;;;;4861993;29;20184;-79
2021/05/15 07:06:40;;;;;;;3.00;2.80;;;12.20;99.90;;;;;;4862094;29;20212;-80
2021/05/15 07:09:06;;;;;;;3.70;3.07;;;12.40;99.90;;;;;;4862333;29;20208;-81
2021/05/15 07:11:32;;;;;;;3.93;3.53;;;12.60;99.90;;;;;;4862077;29;20236;-81
2021/05/15 07:13:59;;;;;;;3.23;2.93;;;12.70;99.90;;;;;;4862128;29;20439;-81
2021/05/15 07:16:24;;;;;;;3.37;3.07;;;12.80;99.90;;;;;;4861573;29;21021;-81
2021/05/15 07:18:50;;;;;;;3.67;3.20;;;13.10;99.90;;;;;;4861784;29;20421;-80
2021/05/15 07:21:15;;;;;;;3.07;2.87;;;13.20;99.90;;;;;;4861971;29;20493;-81
2021/05/15 07:23:41;;;;;;;3.37;3.07;;;13.00;99.90;;;;;;4860655;29;20188;-81
2021/05/15 07:26:08;;;;;;;3.50;3.20;;;12.90;99.90;;;;;;4861484;29;20212;-80
2021/05/15 07:28:34;;;;;;;3.63;3.33;;;13.00;99.90;;;;;;4876057;29;20569;-80
2021/05/15 07:31:00;;;;;;;3.63;3.33;;;13.20;99.90;;;;;;4861603;29;20429;-80
2021/05/15 07:33:26;;;;;;;3.90;3.60;;;13.30;99.90;;;;;;4861453;29;20400;-81
2021/05/15 07:35:52;;;;;;;4.40;4.03;;;13.40;99.90;;;;;;4859917;29;20473;-81
2021/05/15 07:38:19;;;;;;;3.70;3.40;;;13.40;99.90;;;;;;4861708;29;20232;-80
2021/05/15 07:40:44;;;;;;;3.80;3.07;;;13.40;99.90;;;;;;4861764;29;20429;-80
2021/05/15 07:43:10;;;;;;;3.40;3.20;;;13.10;99.90;;;;;;4861431;29;20800;-80
2021/05/15 07:45:36;;;;;;;3.67;3.20;;;12.90;99.90;;;;;;4861158;29;20204;-80
2021/05/15 07:48:02;;;;;;;4.40;4.00;;;12.90;99.90;;;;;;4861455;29;20635;-82
2021/05/15 07:50:30;;;;;;;4.77;4.30;;;12.80;99.90;;;;;;4861546;29;20463;-81
2021/05/15 07:52:56;;;;;;;4.23;3.83;;;12.60;99.90;;;;;;4859456;29;20445;-82
2021/05/15 07:55:22;;;;;;;4.73;4.00;;;12.60;99.90;;;;;;4859728;29;20555;-82
2021/05/15 07:57:48;;;;;;;5.10;3.77;;;12.50;99.90;;;;;;4861540;29;20425;-82
2021/05/15 08:00:14;;;;;;;3.73;3.03;;;12.50;99.90;;;;;;4861435;29;20429;-82
2021/05/15 08:02:40;;;;;;;4.20;3.30;;;12.50;99.90;;;;;;4860157;29;20184;-82
2021/05/15 08:05:07;;;;;;;6.17;4.80;;;12.70;99.90;;;;;;4860804;29;20457;-82
2021/05/15 08:07:33;;;;;;;4.10;3.70;;;12.60;99.90;;;;;;4875656;29;20838;-81
2021/05/15 08:09:58;;;;;;;6.13;4.40;;;12.50;99.90;;;;;;4861267;29;20489;-81
2021/05/15 08:12:24;;;;;;;4.70;3.93;;;12.60;99.90;;;;;;4861182;29;20215;-81
2021/05/15 08:14:50;;;;;;;2.93;2.73;;;12.50;99.90;;;;;;4860647;29;20255;-81
2021/05/15 08:17:15;;;;;;;4.60;4.10;;;12.80;99.90;;;;;;4859785;29;20203;-81
2021/05/15 08:19:41;;;;;;;6.00;3.00;;;13.10;99.90;;;;;;4861027;29;20176;-82
2021/05/15 08:22:07;;;;;;;3.00;2.70;;;13.40;99.90;;;;;;4861132;29;20192;-81
2021/05/15 08:24:32;;;;;;;3.23;2.70;;;13.70;99.90;;;;;;4860524;29;20276;-81
2021/05/15 08:26:58;;;;;;;3.17;2.80;;;14.00;99.90;;;;;;4861062;29;20199;-81
2021/05/15 08:29:24;;;;;;;4.50;2.97;;;13.50;99.90;;;;;;4859590;29;20541;-82
2021/05/15 08:31:50;;;;;;;2.30;2.10;;;13.20;99.90;;;;;;4875095;29;20196;-81
2021/05/15 08:34:16;;;;;;;2.83;2.63;;;13.20;99.90;;;;;;4860562;29;20404;-81
2021/05/15 08:36:42;;;;;;;2.90;2.27;;;13.30;99.90;;;;;;4860635;29;20886;-81
2021/05/15 08:39:08;;;;;;;2.10;1.90;;;13.60;99.90;;;;;;4859873;29;20935;-80
2021/05/15 08:41:34;;;;;;;3.87;2.80;;;13.90;99.90;;;;;;4860581;29;20440;-80
2021/05/15 08:44:04;;;;;;;3.63;2.13;;;14.00;99.90;;;;;;4860924;29;20195;-80
2021/05/15 08:46:31;;;;;;;1.77;1.63;;;14.30;99.90;;;;;;4860429;29;20453;-82
2021/05/15 08:49:06;;;;;;;2.90;1.90;;;14.70;99.90;;;;;;4860964;29;20396;-82
2021/05/15 08:51:32;;;;;;;2.90;1.83;;;15.10;99.90;;;;;;4860665;29;20821;-81
2021/05/15 08:53:59;;;;;;;2.00;1.90;;;14.90;99.90;;;;;;4860589;29;20408;-81
2021/05/15 08:56:25;;;;;;;2.07;1.87;;;14.80;99.90;;;;;;4860371;29;21028;-81
2021/05/15 08:58:51;;;;;;;3.17;1.90;;;15.40;99.90;;;;;;4860739;29;20403;-81
2021/05/15 09:01:17;;;;;;;2.53;2.33;;;15.30;99.90;;;;;;4860555;29;20449;-81
2021/05/15 09:03:44;;;;;;;2.50;2.10;;;14.80;99.90;;;;;;4861753;29;20181;-80
2021/05/15 09:06:10;;;;;;;2.43;2.07;;;14.70;99.90;;;;;;4862936;29;20454;-81
2021/05/15 09:08:37;;;;;;;3.23;2.90;;;14.50;99.90;;;;;;4864221;29;20387;-80
2021/05/15 09:11:04;;;;;;;2.33;2.13;;;14.40;99.90;;;;;;4864345;29;20740;-80
2021/05/15 09:13:30;;;;;;;3.47;3.00;;;14.40;99.90;;;;;;4862738;29;20447;-79
2021/05/15 09:16:04;;;;;;;3.17;2.70;;;14.40;99.90;;;;;;4863423;29;20611;-79
2021/05/15 09:18:40;;;;;;;5.33;4.00;;;14.30;99.90;;;;;;4862933;29;20428;-81
2021/05/15 09:21:09;;;;;;;7.53;4.60;;;13.50;99.90;;;;;;4864192;29;20482;-80
2021/05/15 09:23:37;;;;;;;7.50;4.83;;;13.00;99.90;;;;;;4863678;29;20429;-80
2021/05/15 09:26:06;;;;;;;8.40;4.40;;;12.80;99.90;;;;;;4863412;29;20484;-80
2021/05/15 09:28:41;;;;;;;13.17;5.40;;;12.60;99.90;;;;;;4863847;29;20407;-80
2021/05/15 09:31:17;;;;;;;5.93;4.70;;;12.60;99.90;;;;;;4863904;29;20791;-79
2021/05/15 09:33:45;;;;;;;10.87;8.77;;;12.50;99.90;;;;;;4878027;29;20493;-79
2021/05/15 09:36:16;;;;;;;9.80;7.27;;;12.40;99.90;;;;;;4861947;29;20993;-81
2021/05/15 09:38:42;;;;;;;11.90;6.50;;;12.40;99.90;;;;;;4863751;29;20412;-81
2021/05/15 09:41:08;;;;;;;6.07;4.97;;;12.30;99.90;;;;;;4863857;29;20453;-81
2021/05/15 09:43:34;;;;;;;6.90;3.80;;;12.00;99.90;;;;;;4862500;29;20831;-80
2021/05/15 09:46:00;;;;;;;5.63;3.57;;;11.10;99.90;;;;;;4863104;29;20539;-79
2021/05/15 09:48:35;;;;;;;3.90;3.50;;;10.80;99.90;;;;;;4863529;29;20280;-79
2021/05/15 09:51:17;;;;;;;12.05;6.70;;;10.80;99.90;;;;;;4863656;29;20287;-79
2021/05/15 09:53:44;;;;;;;5.85;4.80;;;10.90;99.90;;;;;;4863504;29;20258;-80
2021/05/15 09:56:10;;;;;;;4.53;3.22;;;11.10;99.90;;;;;;4862483;29;20236;-80
2021/05/15 09:58:37;;;;;;;5.83;4.30;;;11.10;99.90;;;;;;4877920;29;20215;-80
2021/05/15 10:01:03;;;;;;;5.47;4.97;;;11.20;99.90;;;;;;4877909;29;20421;-80
2021/05/15 10:03:32;;;;;;;8.23;4.80;;;11.40;99.90;;;;;;4863546;29;20188;-80
2021/05/15 10:06:01;;;;;;;5.90;4.82;;;11.70;99.90;;;;;;4862975;29;20448;-80
2021/05/15 10:08:27;;;;;;;6.13;5.30;;;12.00;99.90;;;;;;4863175;29;20532;-80
2021/05/15 10:10:53;;;;;;;8.53;7.20;;;12.10;99.90;;;;;;4863287;29;20566;-81
2021/05/15 10:13:22;;;;;;;7.07;5.80;;;12.20;99.90;;;;;;4862068;29;20516;-81
2021/05/15 10:15:49;;;;;;;9.30;7.17;;;12.30;99.90;;;;;;4862196;29;20479;-80
2021/05/15 10:18:16;;;;;;;7.63;5.80;;;12.20;99.90;;;;;;4861800;29;20421;-81
2021/05/15 10:20:42;;;;;;;6.87;6.17;;;12.00;99.90;;;;;;4863021;29;20798;-81
2021/05/15 10:23:19;;;;;;;10.10;6.90;;;12.10;99.90;;;;;;4863019;29;20958;-78
2021/05/15 10:25:46;;;;;;;7.00;6.40;;;12.20;99.90;;;;;;4862688;29;20846;-80
2021/05/15 10:28:12;;;;;;;5.68;4.93;;;12.30;99.90;;;;;;4862887;29;20765;-80
2021/05/15 10:30:38;;;;;;;5.03;4.53;;;12.30;99.90;;;;;;4862945;29;20195;-81
2021/05/15 10:33:09;;;;;;;5.50;4.33;;;12.40;99.90;;;;;;4862884;29;20184;-80
2021/05/15 10:35:43;;;;;;;4.53;4.13;;;12.40;99.90;;;;;;4862391;29;20475;-80
2021/05/15 10:38:14;;;;;;;5.93;3.67;;;12.60;99.90;;;;;;4861543;29;20424;-82
2021/05/15 10:40:49;;;;;;;6.05;3.03;;;12.70;99.90;;;;;;4862638;29;20440;-82
2021/05/15 10:43:29;;;;;;;4.77;3.70;;;12.70;99.90;;;;;;4862645;29;20176;-81
2021/05/15 10:45:55;;;;;;;5.93;3.40;;;12.90;99.90;;;;;;4862665;29;20455;-81
2021/05/15 10:48:26;;;;;;;3.87;3.57;;;12.90;99.90;;;;;;4861362;29;20433;-81
2021/05/15 10:50:56;;;;;;;4.23;3.83;;;13.00;99.90;;;;;;4862575;29;20184;-81
2021/05/15 10:53:30;;;;;;;3.50;2.97;;;13.00;99.90;;;;;;4862558;29;20512;-81
2021/05/15 10:56:17;;;;;;;5.67;3.37;;;13.30;99.90;;;;;;4862212;29;20879;-80
2021/05/15 10:58:50;;;;;;;5.53;2.53;;;13.70;99.90;;;;;;4861954;29;20888;-80
2021/05/15 11:01:20;;;;;;;3.67;2.80;;;14.20;99.90;;;;;;4861785;29;20451;-80
2021/05/15 11:03:47;;;;;;;3.60;2.43;;;14.60;99.90;;;;;;4861899;29;20945;-79
2021/05/15 11:06:17;;;;;;;3.10;2.63;;;15.00;99.90;;;;;;4860390;29;20573;-80
2021/05/15 11:08:54;;;;;;;3.20;2.20;;;15.40;99.90;;;;;;4862193;29;20407;-80
2021/05/15 11:11:20;;;;;;;4.50;4.20;;;15.90;99.90;;;;;;4876213;29;20523;-80
2021/05/15 11:13:50;;;;;;;2.27;1.70;;;16.20;99.90;;;;;;4861650;29;20499;-79
2021/05/15 11:16:29;;;;;;;3.60;3.40;;;16.00;99.90;;;;;;4861068;29;20220;-80
2021/05/15 11:19:08;;;;;;;1.20;1.10;;;16.10;99.90;;;;;;4861966;29;20403;-80
2021/05/15 11:21:38;;;;;;;1.60;1.50;;;15.80;99.90;;;;;;4861960;29;20458;-80
2021/05/15 11:24:05;;;;;;;1.60;1.37;;;15.90;99.90;;;;;;4861986;29;20429;-79
2021/05/15 11:26:51;;;;;;;1.27;1.10;;;16.00;99.90;;;;;;4860193;29;20779;-79
2021/05/15 11:29:30;;;;;;;1.93;1.33;;;16.20;99.90;;;;;;4861852;29;20805;-80
2021/05/15 11:32:04;;;;;;;2.50;1.10;;;16.60;99.90;;;;;;4861833;29;20458;-80
2021/05/15 11:34:30;;;;;;;2.63;1.50;;;16.80;99.90;;;;;;4861348;29;20468;-80
2021/05/15 11:36:56;;;;;;;1.10;0.77;;;16.90;99.90;;;;;;4861375;29;20534;-79
2021/05/15 11:39:22;;;;;;;1.80;0.90;;;17.30;99.90;;;;;;4860379;29;20427;-80
2021/05/15 11:42:00;;;;;;;1.20;0.80;;;17.20;99.90;;;;;;4861601;29;20192;-80
2021/05/15 11:44:26;;;;;;;1.10;0.87;;;17.40;99.90;;;;;;4861198;29;20473;-79
2021/05/15 11:46:54;;;;;;;0.97;0.80;;;17.30;99.90;;;;;;4861412;29;20881;-79
2021/05/15 11:49:29;;;;;;;1.60;0.90;;;17.00;99.90;;;;;;4875643;29;20320;-79
2021/05/15 11:52:03;;;;;;;1.60;1.00;;;17.00;99.90;;;;;;4861679;29;20420;-80
2021/05/15 11:54:30;;;;;;;2.57;1.07;;;17.60;99.90;;;;;;4860965;29;20404;-79
2021/05/15 11:57:00;;;;;;;1.00;0.90;;;17.60;99.90;;;;;;4861146;29;20451;-79
2021/05/15 11:59:30;;;;;;;1.43;1.20;;;17.80;99.90;;;;;;4861329;29;20406;-79
2021/05/15 12:01:58;;;;;;;1.57;1.00;;;17.80;99.90;;;;;;4861308;29;20420;-80
2021/05/15 12:04:29;;;;;;;5.33;1.10;;;17.30;99.90;;;;;;4860910;29;20399;-77
2021/05/15 12:07:03;;;;;;;4.40;1.20;;;17.50;99.90;;;;;;4861322;29;20432;-78
2021/05/15 12:09:30;;;;;;;1.47;0.90;;;17.70;99.90;;;;;;4861134;29;20431;-77
2021/05/15 12:11:59;;;;;;;3.13;1.10;;;17.60;99.90;;;;;;4861212;29;20508;-79
2021/05/15 12:14:25;;;;;;;3.70;1.00;;;17.30;99.90;;;;;;4860541;29;20425;-79
2021/05/15 12:16:50;;;;;;;2.80;0.97;;;17.00;99.90;;;;;;4860871;29;20469;-80
2021/05/15 12:19:34;;;;;;;2.23;0.90;;;17.10;99.90;;;;;;4860983;29;20398;-80
2021/05/15 12:22:06;;;;;;;1.30;0.87;;;17.40;99.90;;;;;;4861097;29;20259;-78
2021/05/15 12:24:41;;;;;;;1.93;0.90;;;17.80;99.90;;;;;;4860545;29;20432;-79
2021/05/15 12:27:19;;;;;;;2.10;1.00;;;18.40;99.90;;;;;;4860923;29;20387;-80
2021/05/15 12:29:45;;;;;;;3.13;1.30;;;18.70;99.90;;;;;;4859906;29;20399;-79
2021/05/15 12:32:11;;;;;;;2.23;1.10;;;19.00;99.90;;;;;;4859760;29;20421;-80
2021/05/15 12:34:37;;;;;;;1.83;1.10;;;18.90;99.90;;;;;;4860457;29;20938;-79
2021/05/15 12:37:18;;;;;;;1.07;0.83;;;18.80;99.90;;;;;;4861401;29;20519;-78
2021/05/15 12:39:43;;;;;;;2.90;1.20;;;18.40;99.90;;;;;;4866907;29;20396;-78
2021/05/15 12:42:14;;;;;;;2.23;0.97;;;18.20;99.90;;;;;;4866796;29;20477;-78
2021/05/15 12:44:42;;;;;;;2.90;1.27;;;18.00;99.90;;;;;;4865445;29;20208;-79
2021/05/15 12:47:08;;;;;;;1.10;0.80;;;17.70;99.90;;;;;;4881091;29;20858;-79
2021/05/15 12:49:39;;;;;;;1.90;1.00;;;17.20;99.90;;;;;;4866716;29;20399;-79
2021/05/15 12:52:14;;;;;;;4.50;1.70;;;16.60;99.90;;;;;;4866863;29;20450;-82